Flight Track Log - Related Links

Times and Time Zones

All times are in EDT time to prevent confusion due to time zone crossing. See the ASQ4283 flight status page for this flight to view local times or setup timezone preferences in your user account.

Time Position Orientation Groundspeed Altitude Reporting Facility
EDT Latitude Longitude Course Direction KTS MPH feet Rate Location/Type
Wed 06:56:47 AM 36.2178 -95.8811 183° South 162 186 1,200  Level Kansas City Center
Wed 06:57:54 AM 36.2478 -95.8408 47° Northeast 201 231 3,100 1,748 Climbing Kansas City Center
Wed 06:58:00 AM 36.0995 -95.8788 169° South  Level Estimated
Wed 06:58:54 AM 36.1922 -95.8275 169° South 237 273 4,900  Level Kansas City Center
Wed 06:59:00 AM 36.0273 -95.8720 180° South  Level Estimated
Wed 07:00:00 AM 35.9549 -95.8679 177° South  Level FlightAware Approximate
Wed 07:00:12 AM 36.1044 -95.8331 183° South 257 296 7,400  Level Kansas City Center
Wed 07:01:00 AM 35.8827 -95.8611 180° South  Level Estimated
Wed 07:01:12 AM 36.0267 -95.8389 183° South 272 313 9,400  Level Kansas City Center
Wed 07:02:00 AM 35.8103 -95.8651 183° South  Level FlightAware Approximate
Wed 07:02:13 AM 35.9464 -95.8453 184° South 284 327 11,200  Level Kansas City Center
Wed 07:03:13 AM 35.8533 -95.8533 184° South 320 368 12,200 1,041 Climbing Kansas City Center
Wed 07:04:14 AM 35.7522 -95.8617 184° South 351 404 13,300 1,240 Climbing Kansas City Center
Wed 07:05:14 AM 35.6497 -95.8792 188° South 368 423 14,700 1,450 Climbing Kansas City Center
Wed 07:06:14 AM 35.5517 -95.9197 199° South 373 429 16,200 1,339 Climbing Kansas City Center
Wed 07:07:15 AM 35.4517 -95.9572 197° South 372 428 17,400 1,041 Climbing Kansas City Center
Wed 07:08:15 AM 35.3486 -95.9969 197° South 382 440 18,300 1,055 Climbing Kansas City Center
Wed 07:08:46 AM 35.2736 -96.0278 199° South 387 445 19,000 1,253 Climbing Fort Worth Center
Wed 07:09:46 AM 35.1675 -96.0675 197° South 393 452 20,200 1,150 Climbing Fort Worth Center
Wed 07:10:46 AM 35.0617 -96.1097 198° South 403 464 21,300 1,300 Climbing Fort Worth Center
Wed 07:11:46 AM 34.9494 -96.1494 196° South 409 471 22,800 1,500 Climbing Fort Worth Center
Wed 07:12:46 AM 34.8433 -96.1889 197° South 409 471 24,300 1,450 Climbing Fort Worth Center
Wed 07:13:46 AM 34.7375 -96.2311 198° South 409 471 25,700 1,250 Climbing Fort Worth Center
Wed 07:14:46 AM 34.6356 -96.2678 196° South 403 464 26,800 1,150 Climbing Fort Worth Center
Wed 07:15:46 AM 34.5317 -96.3069 197° South 398 458 28,000 1,250 Climbing Fort Worth Center
Wed 07:16:46 AM 34.4275 -96.3436 196° South 398 458 29,300 1,350 Climbing Fort Worth Center
Wed 07:17:46 AM 34.3256 -96.3825 197° South 398 458 30,700 1,300 Climbing Fort Worth Center
Wed 07:18:46 AM 34.2236 -96.4214 198° South 393 452 31,900 1,150 Climbing Fort Worth Center
Wed 07:19:46 AM 34.1217 -96.4575 196° South 388 447 33,000 950 Climbing Fort Worth Center
Wed 07:20:46 AM 34.0261 -96.4936 197° South 376 433 33,800 500 Climbing Fort Worth Center
Wed 07:21:46 AM 33.9178 -96.5350 198° South 389 448 34,000 100 Climbing Fort Worth Center
Wed 07:22:46 AM 33.8011 -96.5736 195° South 416 479 34,000  Level Fort Worth Center
Wed 07:23:46 AM 33.6847 -96.6197 198° South 433 498 34,000  Level Fort Worth Center
Wed 07:24:46 AM 33.5658 -96.6606 196° South 439 505 34,000  Level Fort Worth Center
Wed 07:25:46 AM 33.4472 -96.7039 197° South 439 505 34,000  Level Fort Worth Center
Wed 07:26:46 AM 33.3264 -96.7447 196° South 444 511 34,000  Level Fort Worth Center
Wed 07:27:46 AM 33.2056 -96.7903 198° South 449 517 34,000  Level Fort Worth Center
Wed 07:28:46 AM 33.0889 -96.8333 197° South 449 517 34,000  Level Fort Worth Center
Wed 07:29:46 AM 32.9681 -96.8761 197° South 449 517 34,000  Level Fort Worth Center
Wed 07:30:46 AM 32.8594 -96.8942 188° South 449 517 34,000  Level Fort Worth Center
Wed 07:31:46 AM 32.7256 -96.8578 167° South 447 514 34,000  Level Fort Worth Center
Wed 07:32:46 AM 32.6044 -96.8217 166° South 447 514 34,000  Level Fort Worth Center
Wed 07:33:46 AM 32.4811 -96.7878 167° South 447 514 34,000  Level Fort Worth Center
Wed 07:34:46 AM 32.3597 -96.7519 166° South 452 520 34,000  Level Fort Worth Center
Wed 07:35:46 AM 32.2406 -96.7183 167° South 447 514 34,000  Level Fort Worth Center
Wed 07:36:46 AM 32.1256 -96.6872 167° South 442 509 34,000  Level Fort Worth Center
Wed 07:37:46 AM 32.0086 -96.6539 166° South 436 502 34,000  Level Fort Worth Center
Wed 07:38:46 AM 31.8914 -96.6206 166° South 428 493 34,000  Level Fort Worth Center
Wed 07:39:40 AM 31.7961 -96.5925 166° South 441 507 34,000 -835 Level Houston Center
Wed 07:40:41 AM 31.6767 -96.5583 166° South 437 503 32,400 -1,426 Descending Houston Center
Wed 07:41:42 AM 31.5581 -96.5244 166° South 434 499 31,100 -934 Descending Houston Center
Wed 07:42:43 AM 31.4364 -96.4828 164° South 446 513 30,500 -787 Descending Houston Center
Wed 07:43:44 AM 31.3136 -96.4369 162° South 453 521 29,500 -1,230 Descending Houston Center
Wed 07:44:45 AM 31.1906 -96.3906 162° South 455 524 28,000 -1,820 Descending Houston Center
Wed 07:45:46 AM 31.0683 -96.3439 162° South 456 525 25,800 -1,869 Descending Houston Center
Wed 07:46:47 AM 30.9472 -96.2942 161° South 457 526 24,200 -1,623 Descending Houston Center
Wed 07:47:48 AM 30.8433 -96.2097 145° Southeast 451 519 22,500 -2,262 Descending Houston Center
Wed 07:48:49 AM 30.7444 -96.1219 143° Southeast 442 509 19,600 -2,803 Descending Houston Center
Wed 07:49:50 AM 30.6567 -96.0431 142° Southeast 425 489 16,800 -3,111 Descending Houston Center
Wed 07:50:37 AM 30.5736 -95.9703 143° Southeast 394 453 14,000 -2,579 Descending Houston Center
Wed 07:51:37 AM 30.4872 -95.8931 142° Southeast 389 448 12,200 -882 Descending Houston Center
Wed 07:52:53 AM 30.3867 -95.7928 139° Southeast 385 443 12,000 -516 Descending Houston Center
Wed 07:53:45 AM 30.3147 -95.7194 139° Southeast 378 435 11,100 -953 Descending Houston Center
Wed 07:54:40 AM 30.2475 -95.6475 137° Southeast 362 417 10,300 -672 Descending Houston Center
Wed 07:55:41 AM 30.1825 -95.5803 138° Southeast 276 318 9,800 -984 Descending Houston Center
Wed 07:56:48 AM 30.1200 -95.5153 138° Southeast 288 331 8,200 -1,279 Descending Houston Center
Wed 07:57:43 AM 30.1064 -95.4347 101° East 277 319 7,200 -626 Descending Houston Center
Wed 07:58:43 AM 30.1047 -95.3456 91° East 276 318 7,000 -645 Descending Houston Center
Wed 07:59:44 AM 30.1053 -95.2611 90° East 250 288 5,900 -1,770 Descending Houston Center
Wed 08:00:45 AM 30.0836 -95.1864 109° East 255 293 3,400 -2,017 Descending Houston Center
Wed 08:01:40 AM 30.0253 -95.1886 182° South 239 275 2,000 -1,527 Descending Houston Center

Login

Don't have an account? Register now (free) for customized features, flight alerts, and more!